createdAt,value
2018-12-29T00:01:17.005Z,94.20
2018-12-29T00:07:20.422Z,94.30
2018-12-29T00:13:23.762Z,94.50
2018-12-29T00:19:27.140Z,94.60
2018-12-29T00:25:30.535Z,94.60
2018-12-29T00:31:33.889Z,94.60
2018-12-29T00:37:37.420Z,94.50
2018-12-29T00:43:40.781Z,94.40
2018-12-29T00:49:44.116Z,94.50
2018-12-29T00:55:47.441Z,94.50
2018-12-29T01:01:51.553Z,94.50
2018-12-29T01:07:54.888Z,94.60
2018-12-29T01:13:58.223Z,94.70
2018-12-29T01:20:01.528Z,94.80
2018-12-29T01:26:04.860Z,94.80
2018-12-29T01:32:08.200Z,94.80
2018-12-29T01:38:11.536Z,94.90
2018-12-29T01:44:14.956Z,94.90
2018-12-29T01:50:18.300Z,94.80
2018-12-29T01:56:21.631Z,94.90
2018-12-29T02:02:25.735Z,94.90
2018-12-29T02:08:29.073Z,94.70
2018-12-29T02:14:32.404Z,94.70
2018-12-29T02:20:35.712Z,94.80
2018-12-29T02:26:39.119Z,94.90
2018-12-29T02:32:42.455Z,95.00
2018-12-29T02:38:45.864Z,94.90
2018-12-29T02:44:49.236Z,95.00
2018-12-29T02:50:52.582Z,94.90
2018-12-29T02:56:56.042Z,94.90
2018-12-29T03:03:00.265Z,94.80
2018-12-29T03:09:04.685Z,94.70
2018-12-29T03:15:08.162Z,94.70
2018-12-29T03:21:11.736Z,94.60
2018-12-29T03:27:15.070Z,94.50
2018-12-29T03:33:18.405Z,94.60
2018-12-29T03:39:21.741Z,94.60
2018-12-29T03:45:25.189Z,94.40
2018-12-29T03:51:28.529Z,94.50
2018-12-29T03:57:31.999Z,94.40
2018-12-29T04:03:36.157Z,94.30
2018-12-29T04:09:39.497Z,94.40
2018-12-29T04:15:42.906Z,94.50
2018-12-29T04:21:46.288Z,94.60
2018-12-29T04:27:49.624Z,94.50
2018-12-29T04:33:52.948Z,94.50
2018-12-29T04:39:56.284Z,94.10
2018-12-29T04:46:05.220Z,93.80
2018-12-29T04:52:04.720Z,93.30
2018-12-29T04:58:08.100Z,93.20
2018-12-29T05:04:12.299Z,93.50
2018-12-29T05:10:15.708Z,93.20
2018-12-29T05:16:19.039Z,93.20
2018-12-29T05:22:22.407Z,93.00
2018-12-29T05:28:25.975Z,93.10
2018-12-29T05:34:29.369Z,93.20
2018-12-29T05:40:32.671Z,93.40
2018-12-29T05:46:36.148Z,93.70
2018-12-29T05:52:39.488Z,93.60
2018-12-29T05:58:42.897Z,93.60
2018-12-29T06:04:47.121Z,93.80
2018-12-29T06:10:50.508Z,93.90
2018-12-29T06:16:53.842Z,93.80
2018-12-29T06:22:57.152Z,93.90
2018-12-29T06:29:00.487Z,93.90
2018-12-29T06:35:03.889Z,93.90
2018-12-29T06:41:07.408Z,94.10
2018-12-29T06:47:11.347Z,94.20
2018-12-29T06:53:14.755Z,94.10
2018-12-29T06:59:18.136Z,93.80
2018-12-29T07:05:23.075Z,93.90
2018-12-29T07:11:26.639Z,93.80
2018-12-29T07:17:29.977Z,94.00
2018-12-29T07:23:33.433Z,94.10
2018-12-29T07:29:38.426Z,94.10
2018-12-29T07:35:41.985Z,94.00
2018-12-29T07:41:45.396Z,93.60
2018-12-29T07:47:49.619Z,93.60
2018-12-29T07:53:53.331Z,93.60
2018-12-29T07:59:56.640Z,93.80
2018-12-29T08:06:00.785Z,93.70
2018-12-29T08:12:04.120Z,93.60
2018-12-29T08:18:07.457Z,93.80
2018-12-29T08:24:10.848Z,93.60
2018-12-29T08:30:14.180Z,93.60
2018-12-29T08:36:17.516Z,93.60
2018-12-29T08:42:20.919Z,93.50
2018-12-29T08:48:25.237Z,93.20
2018-12-29T08:54:28.604Z,93.10
2018-12-29T09:00:32.150Z,92.70
2018-12-29T09:06:36.396Z,92.60
2018-12-29T09:12:39.741Z,92.80
2018-12-29T09:18:49.581Z,92.70
2018-12-29T09:24:48.200Z,92.80
2018-12-29T09:30:51.528Z,92.90
2018-12-29T09:36:54.869Z,92.70
2018-12-29T09:42:58.276Z,92.50
2018-12-29T09:49:01.659Z,92.50
2018-12-29T09:55:05.468Z,92.50
2018-12-29T10:01:08.872Z,92.50
2018-12-29T10:07:12.209Z,92.10
2018-12-29T10:13:15.620Z,92.20
2018-12-29T10:19:18.965Z,92.50
2018-12-29T10:25:22.277Z,92.40
2018-12-29T10:31:25.612Z,92.10
2018-12-29T10:37:28.941Z,92.10
2018-12-29T10:43:32.279Z,91.60
2018-12-29T10:49:36.248Z,92.00
2018-12-29T10:55:39.588Z,92.40
2018-12-29T11:01:42.996Z,92.50
2018-12-29T11:07:47.150Z,92.60
2018-12-29T11:13:50.604Z,92.80
2018-12-29T11:19:53.936Z,92.90
2018-12-29T11:25:57.384Z,93.10
2018-12-29T11:32:00.729Z,92.80
2018-12-29T11:38:04.064Z,93.10
2018-12-29T11:44:07.616Z,92.70
2018-12-29T11:50:11.724Z,92.80
2018-12-29T11:56:15.146Z,92.70
2018-12-29T12:02:24.469Z,92.60
2018-12-29T12:08:23.677Z,92.70
2018-12-29T12:14:27.144Z,92.40
2018-12-29T12:20:30.602Z,92.20
2018-12-29T12:26:33.964Z,92.50
2018-12-29T12:32:37.384Z,92.40
2018-12-29T12:39:15.505Z,92.40
2018-12-29T12:49:08.179Z,92.00
2018-12-29T12:59:41.866Z,92.30
2018-12-29T13:05:45.331Z,92.80
2018-12-29T13:11:49.557Z,92.60
2018-12-29T13:17:53.017Z,92.60
2018-12-29T13:23:56.594Z,92.70
2018-12-29T13:29:59.979Z,92.90
2018-12-29T13:36:03.389Z,92.80
2018-12-29T13:42:06.796Z,93.10
2018-12-29T13:48:10.213Z,93.50
2018-12-29T13:54:13.636Z,93.10
2018-12-29T14:00:18.820Z,93.10
2018-12-29T14:06:22.280Z,93.00
2018-12-29T14:12:26.753Z,92.80
2018-12-29T14:18:31.012Z,92.80
2018-12-29T14:24:34.661Z,93.40
2018-12-29T14:30:38.041Z,92.90
2018-12-29T14:36:42.496Z,92.90
2018-12-29T14:42:46.264Z,93.00
2018-12-29T14:48:49.678Z,92.90
2018-12-29T14:54:53.089Z,92.70
2018-12-29T15:00:56.527Z,92.50
2018-12-29T15:06:59.937Z,92.70
2018-12-29T15:13:04.420Z,92.50
2018-12-29T15:19:08.858Z,92.40
2018-12-29T15:25:12.273Z,92.40
2018-12-29T15:31:16.075Z,92.40
2018-12-29T15:37:19.568Z,92.20
2018-12-29T15:43:23.102Z,92.20
2018-12-29T15:49:26.529Z,92.00
2018-12-29T15:55:30.229Z,91.80
2018-12-29T16:01:33.967Z,91.60
2018-12-29T16:07:37.361Z,91.50
2018-12-29T16:13:42.502Z,91.50
2018-12-29T16:19:45.907Z,91.40
2018-12-29T16:25:49.325Z,91.70
2018-12-29T16:31:52.722Z,91.80
2018-12-29T16:37:56.140Z,92.10
2018-12-29T16:43:59.560Z,92.00
2018-12-29T16:50:02.976Z,92.10
2018-12-29T16:56:06.396Z,92.00
2018-12-29T17:02:09.833Z,92.10
2018-12-29T17:08:13.253Z,92.20
2018-12-29T17:14:17.773Z,92.20
2018-12-29T17:20:21.201Z,92.20
2018-12-29T17:26:24.606Z,92.30
2018-12-29T17:32:28.000Z,92.40
2018-12-29T17:38:31.402Z,92.70
2018-12-29T17:44:35.113Z,92.80
2018-12-29T17:50:38.528Z,93.00
2018-12-29T17:56:41.960Z,93.10
2018-12-29T18:02:45.702Z,93.30
2018-12-29T18:08:49.080Z,93.10
2018-12-29T18:14:53.368Z,93.20
2018-12-29T18:20:56.748Z,93.30
2018-12-29T18:27:00.428Z,93.20
2018-12-29T18:33:03.840Z,93.30
2018-12-29T18:39:07.593Z,93.30
2018-12-29T18:45:11.008Z,93.20
2018-12-29T18:51:14.421Z,93.20
2018-12-29T18:57:18.140Z,93.20
2018-12-29T19:03:21.581Z,93.20
2018-12-29T19:09:24.983Z,93.20
2018-12-29T19:15:29.204Z,93.20
2018-12-29T19:21:33.017Z,93.20
2018-12-29T19:27:36.831Z,93.40
2018-12-29T19:33:40.210Z,93.50
2018-12-29T19:39:43.627Z,93.30
2018-12-29T19:45:47.028Z,93.70
2018-12-29T19:51:50.704Z,93.40
2018-12-29T19:57:54.288Z,93.50
2018-12-29T20:04:01.080Z,93.50
2018-12-29T20:10:06.185Z,93.40
2018-12-29T20:16:10.418Z,93.20
2018-12-29T20:22:15.466Z,93.20
2018-12-29T20:28:19.020Z,93.20
2018-12-29T20:34:22.401Z,93.10
2018-12-29T20:40:26.018Z,92.80
2018-12-29T20:46:29.428Z,92.90
2018-12-29T20:52:32.840Z,92.90
2018-12-29T20:58:36.251Z,92.80
2018-12-29T21:04:39.679Z,92.90
2018-12-29T21:10:43.098Z,92.90
2018-12-29T21:16:47.399Z,92.80
2018-12-29T21:22:50.825Z,92.80
2018-12-29T21:28:54.236Z,92.70
2018-12-29T21:34:57.821Z,92.80
2018-12-29T21:41:01.227Z,92.80
2018-12-29T21:47:04.632Z,92.80
2018-12-29T21:53:08.340Z,92.70
2018-12-29T21:59:11.756Z,92.80
2018-12-29T22:05:15.208Z,92.80
2018-12-29T22:11:19.054Z,92.70
2018-12-29T22:17:24.248Z,92.60
2018-12-29T22:23:27.660Z,92.70
2018-12-29T22:29:31.069Z,92.70
2018-12-29T22:35:34.453Z,92.50
2018-12-29T22:41:37.871Z,92.40
2018-12-29T22:47:41.285Z,92.40
2018-12-29T22:53:44.696Z,92.20
2018-12-29T22:59:48.106Z,92.20
2018-12-29T23:05:51.605Z,92.10
2018-12-29T23:11:55.012Z,92.10
2018-12-29T23:17:59.281Z,92.30
2018-12-29T23:24:02.873Z,92.50
2018-12-29T23:30:06.284Z,92.60
2018-12-29T23:36:09.668Z,92.50
2018-12-29T23:42:13.077Z,92.40
2018-12-29T23:48:16.533Z,92.50
2018-12-29T23:54:20.018Z,92.40
